createdAt,value
2022-11-28T00:00:51.770Z,953.55
2022-11-28T00:01:51.820Z,953.5
2022-11-28T00:02:51.821Z,953.49
2022-11-28T00:03:51.714Z,953.47
2022-11-28T00:04:51.695Z,953.47
2022-11-28T00:05:51.674Z,953.36
2022-11-28T00:06:51.778Z,953.4
2022-11-28T00:07:51.722Z,953.41
2022-11-28T00:08:51.621Z,953.37
2022-11-28T00:09:51.608Z,953.41
2022-11-28T00:10:51.581Z,953.36
2022-11-28T00:11:51.563Z,953.37
2022-11-28T00:12:51.543Z,953.36
2022-11-28T00:13:51.534Z,953.31
2022-11-28T00:14:51.507Z,953.33
2022-11-28T00:15:51.518Z,953.29
2022-11-28T00:16:51.469Z,953.29
2022-11-28T00:17:51.449Z,953.24
2022-11-28T00:18:51.450Z,953.25
2022-11-28T00:19:51.415Z,953.3
2022-11-28T00:20:51.940Z,953.28
2022-11-28T00:21:51.921Z,953.34
2022-11-28T00:22:52.041Z,953.31
2022-11-28T00:23:51.885Z,953.31
2022-11-28T00:24:51.864Z,953.3
2022-11-28T00:25:51.849Z,953.3
2022-11-28T00:26:51.828Z,953.29
2022-11-28T00:27:51.817Z,953.39
2022-11-28T00:28:51.791Z,953.4
2022-11-28T00:29:51.773Z,953.42
2022-11-28T00:30:51.752Z,953.41
2022-11-28T00:31:51.772Z,953.41
2022-11-28T00:32:51.716Z,953.45
2022-11-28T00:33:51.697Z,953.49
2022-11-28T00:34:51.778Z,953.52
2022-11-28T00:35:51.662Z,953.51
2022-11-28T00:36:51.641Z,953.52
2022-11-28T00:37:51.624Z,953.55
2022-11-28T00:38:51.721Z,953.48
2022-11-28T00:39:51.586Z,953.55
2022-11-28T00:40:51.566Z,953.47
2022-11-28T00:41:51.550Z,953.5
2022-11-28T00:42:51.529Z,953.52
2022-11-28T00:43:51.513Z,953.47
2022-11-28T00:44:51.594Z,953.42
2022-11-28T00:45:51.511Z,953.4
2022-11-28T00:46:51.453Z,953.41
2022-11-28T00:47:51.438Z,953.39
2022-11-28T00:48:51.420Z,953.41
2022-11-28T00:49:51.398Z,953.37
2022-11-28T00:50:51.378Z,953.41
2022-11-28T00:51:51.362Z,953.39
2022-11-28T00:52:51.340Z,953.41
2022-11-28T00:53:51.325Z,953.37
2022-11-28T00:54:51.422Z,953.44
2022-11-28T00:55:51.288Z,953.38
2022-11-28T00:56:51.267Z,953.41
2022-11-28T00:57:51.249Z,953.4
2022-11-28T00:58:51.230Z,953.41
2022-11-28T00:59:51.215Z,953.36
2022-11-28T01:00:51.223Z,953.37
2022-11-28T01:01:51.210Z,953.34
2022-11-28T01:02:51.188Z,953.34
2022-11-28T01:03:51.140Z,953.38
2022-11-28T01:04:51.116Z,953.33
2022-11-28T01:05:51.101Z,953.3
2022-11-28T01:06:51.083Z,953.35
2022-11-28T01:07:51.108Z,953.34
2022-11-28T01:08:51.043Z,953.35
2022-11-28T01:09:51.022Z,953.39
2022-11-28T01:10:51.131Z,953.34
2022-11-28T01:11:50.986Z,953.38
2022-11-28T01:12:50.968Z,953.4
2022-11-28T01:13:50.948Z,953.35
2022-11-28T01:14:50.934Z,953.35
2022-11-28T01:15:51.027Z,953.35
2022-11-28T01:16:50.966Z,953.37
2022-11-28T01:17:50.873Z,953.34
2022-11-28T01:18:50.858Z,953.36
2022-11-28T01:19:50.837Z,953.32
2022-11-28T01:20:50.831Z,953.3
2022-11-28T01:21:50.802Z,953.29
2022-11-28T01:22:50.781Z,953.34
2022-11-28T01:23:50.763Z,953.29
2022-11-28T01:24:50.742Z,953.31
2022-11-28T01:25:50.724Z,953.34
2022-11-28T01:26:50.824Z,953.44
2022-11-28T01:27:50.691Z,953.45
2022-11-28T01:28:50.671Z,953.43
2022-11-28T01:29:50.648Z,953.45
2022-11-28T01:30:50.631Z,953.4
2022-11-28T01:31:50.655Z,953.43
2022-11-28T01:32:50.596Z,953.42
2022-11-28T01:33:50.574Z,953.43
2022-11-28T01:34:50.557Z,953.37
2022-11-28T01:35:50.536Z,953.37
2022-11-28T01:36:50.519Z,953.37
2022-11-28T01:37:50.500Z,953.29
2022-11-28T01:38:50.484Z,953.34
2022-11-28T01:39:50.462Z,953.28
2022-11-28T01:40:50.446Z,953.24
2022-11-28T01:41:50.422Z,953.26
2022-11-28T01:42:50.523Z,953.2
2022-11-28T01:43:50.389Z,953.2
2022-11-28T01:44:50.370Z,953.17
2022-11-28T01:45:50.351Z,953.07
2022-11-28T01:46:50.405Z,953.07
2022-11-28T01:47:50.314Z,953.02
2022-11-28T01:48:50.295Z,952.96
2022-11-28T01:49:50.274Z,952.91
2022-11-28T01:50:50.259Z,952.92
2022-11-28T01:51:50.241Z,952.82
2022-11-28T01:52:50.222Z,952.83
2022-11-28T01:53:50.206Z,952.8
2022-11-28T01:54:50.184Z,952.84
2022-11-28T01:55:50.164Z,952.8
2022-11-28T01:56:50.149Z,952.8
2022-11-28T01:57:50.127Z,952.82
2022-11-28T01:58:50.232Z,952.8
2022-11-28T01:59:50.090Z,952.75
2022-11-28T02:00:50.143Z,952.7
2022-11-28T02:01:50.085Z,952.72
2022-11-28T02:02:50.035Z,952.71
2022-11-28T02:03:50.167Z,952.66
2022-11-28T02:04:49.998Z,952.68
2022-11-28T02:05:50.132Z,952.65
2022-11-28T02:06:50.163Z,952.67
2022-11-28T02:07:49.999Z,952.64
2022-11-28T02:08:49.926Z,952.62
2022-11-28T02:09:49.907Z,952.65
2022-11-28T02:10:49.885Z,952.63
2022-11-28T02:11:49.870Z,952.6
2022-11-28T02:12:49.851Z,952.6
2022-11-28T02:13:49.834Z,952.61
2022-11-28T02:14:49.936Z,952.6
2022-11-28T02:15:49.873Z,952.63
2022-11-28T02:16:49.778Z,952.56
2022-11-28T02:17:49.758Z,952.59
2022-11-28T02:18:50.661Z,952.66
2022-11-28T02:19:49.722Z,952.61
2022-11-28T02:20:49.702Z,952.61
2022-11-28T02:21:49.686Z,952.6
2022-11-28T02:22:49.667Z,952.62
2022-11-28T02:23:49.648Z,952.61
2022-11-28T02:24:49.628Z,952.59
2022-11-28T02:25:49.764Z,952.6
2022-11-28T02:26:49.591Z,952.6
2022-11-28T02:27:49.575Z,952.62
2022-11-28T02:28:49.555Z,952.65
2022-11-28T02:29:49.537Z,952.61
2022-11-28T02:30:49.736Z,952.66
2022-11-28T02:31:49.550Z,952.65
2022-11-28T02:32:49.483Z,952.7
2022-11-28T02:33:49.465Z,952.65
2022-11-28T02:34:49.787Z,952.61
2022-11-28T02:35:49.529Z,952.68
2022-11-28T02:36:49.409Z,952.68
2022-11-28T02:37:49.390Z,952.58
2022-11-28T02:38:49.370Z,952.64
2022-11-28T02:39:49.354Z,952.61
2022-11-28T02:40:49.335Z,952.62
2022-11-28T02:41:49.316Z,952.66
2022-11-28T02:42:49.296Z,952.61
2022-11-28T02:43:49.280Z,952.6
2022-11-28T02:44:49.262Z,952.61
2022-11-28T02:45:49.246Z,952.56
2022-11-28T02:46:50.050Z,952.57
2022-11-28T02:47:50.054Z,952.58
2022-11-28T02:48:50.033Z,952.55
2022-11-28T02:49:50.021Z,952.51
2022-11-28T02:50:49.998Z,952.51
2022-11-28T02:51:49.982Z,952.51
2022-11-28T02:52:49.962Z,952.47
2022-11-28T02:53:49.943Z,952.45
2022-11-28T02:54:49.926Z,952.48
2022-11-28T02:55:49.907Z,952.51
2022-11-28T02:56:49.889Z,952.47
2022-11-28T02:57:49.872Z,952.47
2022-11-28T02:58:49.854Z,952.46
2022-11-28T02:59:49.833Z,952.47
2022-11-28T03:00:49.845Z,952.48
2022-11-28T03:01:49.867Z,952.51
2022-11-28T03:02:49.906Z,952.44
2022-11-28T03:03:49.759Z,952.44
2022-11-28T03:04:49.745Z,952.44
2022-11-28T03:05:49.722Z,952.43
2022-11-28T03:06:49.709Z,952.39
2022-11-28T03:07:49.711Z,952.36
2022-11-28T03:08:49.672Z,952.31
2022-11-28T03:09:49.649Z,952.36
2022-11-28T03:10:49.635Z,952.33
2022-11-28T03:11:49.616Z,952.38
2022-11-28T03:12:49.597Z,952.27
2022-11-28T03:13:49.577Z,952.29
2022-11-28T03:14:49.561Z,952.23
2022-11-28T03:15:49.598Z,952.23
2022-11-28T03:16:49.537Z,952.2
2022-11-28T03:17:49.507Z,952.18
2022-11-28T03:18:49.610Z,952.16
2022-11-28T03:19:49.469Z,952.17
2022-11-28T03:20:49.450Z,952.16
2022-11-28T03:21:49.432Z,952.08
2022-11-28T03:22:49.415Z,952.11
2022-11-28T03:23:49.396Z,952.1
2022-11-28T03:24:49.378Z,952.05
2022-11-28T03:25:49.360Z,952.07
2022-11-28T03:26:49.344Z,952.11
2022-11-28T03:27:49.323Z,952.1
2022-11-28T03:28:49.307Z,952.13
2022-11-28T03:29:49.287Z,952.14
2022-11-28T03:30:49.273Z,952.17
2022-11-28T03:31:49.324Z,952.16
2022-11-28T03:32:49.231Z,952.11
2022-11-28T03:49:45.365Z,952.07
2022-11-28T03:50:45.219Z,952.04
2022-11-28T03:51:45.200Z,951.99
2022-11-28T03:52:45.178Z,952
2022-11-28T03:53:45.163Z,952.03
2022-11-28T03:54:45.256Z,951.99
2022-11-28T03:55:45.203Z,952.02
2022-11-28T03:56:45.098Z,951.94
2022-11-28T03:57:45.082Z,951.99
2022-11-28T03:58:45.083Z,951.98
2022-11-28T03:59:45.040Z,952.05
2022-11-28T04:00:45.052Z,952
2022-11-28T04:01:45.002Z,952.01
2022-11-28T04:02:45.025Z,952.02
2022-11-28T04:03:44.965Z,952.06
2022-11-28T04:04:45.131Z,952.09
2022-11-28T04:05:45.045Z,952.02
2022-11-28T04:06:44.910Z,951.99
2022-11-28T04:07:44.916Z,951.99
2022-11-28T04:08:44.869Z,952.06
2022-11-28T04:09:44.852Z,951.97
2022-11-28T04:10:44.831Z,951.96
2022-11-28T04:11:44.816Z,951.89
2022-11-28T04:12:44.796Z,951.88
2022-11-28T04:13:44.781Z,951.8
2022-11-28T04:14:45.003Z,951.82
2022-11-28T04:15:44.743Z,951.67
2022-11-28T04:16:47.196Z,951.73
2022-11-28T04:17:44.712Z,951.7
2022-11-28T04:18:44.686Z,951.69
2022-11-28T04:19:44.666Z,951.64
2022-11-28T04:20:44.645Z,951.67
2022-11-28T04:21:44.746Z,951.63
2022-11-28T04:22:44.610Z,951.6
2022-11-28T04:23:44.592Z,951.6
2022-11-28T04:24:44.858Z,951.58
2022-11-28T04:25:44.554Z,951.56
2022-11-28T04:26:44.537Z,951.54
2022-11-28T04:27:44.518Z,951.55
2022-11-28T04:28:44.498Z,951.53
2022-11-28T04:29:44.483Z,951.55
2022-11-28T04:30:44.464Z,951.52
2022-11-28T04:31:44.512Z,951.52
2022-11-28T04:32:44.427Z,951.54
2022-11-28T04:33:44.408Z,951.5
2022-11-28T04:34:44.719Z,951.5
2022-11-28T04:35:44.373Z,951.48
2022-11-28T04:36:44.352Z,951.43
2022-11-28T04:37:44.454Z,951.42
2022-11-28T04:38:44.315Z,951.36
2022-11-28T04:39:44.302Z,951.38
2022-11-28T04:40:44.279Z,951.32
2022-11-28T04:41:44.262Z,951.24
2022-11-28T04:42:46.552Z,951.31
2022-11-28T04:43:44.226Z,951.3
2022-11-28T04:44:45.276Z,951.3
2022-11-28T04:45:45.173Z,951.28
2022-11-28T04:46:45.057Z,951.19
2022-11-28T04:47:45.038Z,951.19
2022-11-28T04:48:45.023Z,951.17
2022-11-28T04:49:45.000Z,951.17
2022-11-28T04:50:44.985Z,951.15
2022-11-28T04:51:44.965Z,951.1
2022-11-28T04:52:44.946Z,951.04
2022-11-28T04:53:45.045Z,951.04
2022-11-28T04:54:45.138Z,951.04
2022-11-28T04:55:44.889Z,950.98
2022-11-28T04:56:44.876Z,950.91
2022-11-28T04:57:44.854Z,950.93
2022-11-28T04:58:44.839Z,950.85
2022-11-28T04:59:44.817Z,950.81
2022-11-28T05:00:44.850Z,950.83
2022-11-28T05:01:44.851Z,950.82
2022-11-28T05:02:44.763Z,950.92
2022-11-28T05:03:44.746Z,950.93
2022-11-28T05:04:45.608Z,950.97
2022-11-28T05:05:45.559Z,950.93
2022-11-28T05:06:45.545Z,950.96
2022-11-28T05:07:45.679Z,950.9
2022-11-28T05:08:45.504Z,950.93
2022-11-28T05:09:45.604Z,950.95
2022-11-28T05:10:45.467Z,950.91
2022-11-28T05:11:45.453Z,950.91
2022-11-28T05:12:45.431Z,950.95
2022-11-28T05:13:45.412Z,950.91
2022-11-28T05:14:45.396Z,950.98
2022-11-28T05:15:45.376Z,950.89
2022-11-28T05:16:45.491Z,950.91
2022-11-28T05:17:45.391Z,950.89
2022-11-28T05:18:45.324Z,950.91
2022-11-28T05:19:45.302Z,950.92
2022-11-28T05:20:45.297Z,950.94
2022-11-28T05:21:45.270Z,950.94
2022-11-28T05:22:45.326Z,950.99
2022-11-28T05:23:45.230Z,950.89
2022-11-28T05:24:45.535Z,950.92
2022-11-28T05:25:45.311Z,950.83
2022-11-28T05:26:45.179Z,950.86
2022-11-28T05:27:45.161Z,950.85
2022-11-28T05:28:45.140Z,950.8
2022-11-28T05:29:49.509Z,950.81
2022-11-28T05:30:45.105Z,950.76
2022-11-28T05:31:45.145Z,950.75
2022-11-28T05:32:45.070Z,950.79
2022-11-28T05:33:45.050Z,950.78
2022-11-28T05:34:45.093Z,950.72
2022-11-28T05:35:45.015Z,950.72
2022-11-28T05:36:44.995Z,950.77
2022-11-28T05:37:44.979Z,950.78
2022-11-28T05:38:44.961Z,950.77
2022-11-28T05:39:45.293Z,950.81
2022-11-28T05:40:44.923Z,950.76
2022-11-28T05:41:45.040Z,950.74
2022-11-28T05:42:44.888Z,950.77
2022-11-28T05:43:44.874Z,950.75
2022-11-28T05:44:44.852Z,950.73
2022-11-28T05:45:44.891Z,950.76
2022-11-28T05:46:44.815Z,950.76
2022-11-28T05:47:44.811Z,950.7
2022-11-28T05:48:44.782Z,950.73
2022-11-28T05:49:45.162Z,950.7
2022-11-28T05:50:44.744Z,950.75
2022-11-28T05:51:44.728Z,950.79
2022-11-28T05:52:44.711Z,950.78
2022-11-28T05:53:44.704Z,950.8
2022-11-28T05:54:44.678Z,950.81
2022-11-28T05:55:44.658Z,950.83
2022-11-28T05:56:44.639Z,950.81
2022-11-28T05:57:44.736Z,950.78
2022-11-28T05:58:44.601Z,950.82
2022-11-28T05:59:44.931Z,950.75
2022-11-28T06:00:44.565Z,950.8
2022-11-28T06:01:44.580Z,950.73
2022-11-28T06:02:44.532Z,950.74
2022-11-28T06:03:44.515Z,950.73
2022-11-28T06:04:44.588Z,950.74
2022-11-28T06:05:44.590Z,950.75
2022-11-28T06:06:44.458Z,950.71
2022-11-28T06:07:44.483Z,950.73
2022-11-28T06:08:44.427Z,950.71
2022-11-28T06:09:44.704Z,950.71
2022-11-28T06:10:44.387Z,950.7
2022-11-28T06:11:44.373Z,950.68
2022-11-28T06:12:44.352Z,950.69
2022-11-28T06:13:44.452Z,950.69
2022-11-28T06:14:44.316Z,950.69
2022-11-28T06:15:44.304Z,950.65
2022-11-28T06:16:44.352Z,950.68
2022-11-28T06:17:44.263Z,950.68
2022-11-28T06:18:44.251Z,950.72
2022-11-28T06:19:44.473Z,950.69
2022-11-28T06:20:44.212Z,950.69
2022-11-28T06:21:44.192Z,950.68
2022-11-28T06:22:44.179Z,950.66
2022-11-28T06:23:44.158Z,950.64
2022-11-28T06:24:44.145Z,950.68
2022-11-28T06:25:44.123Z,950.68
2022-11-28T06:26:44.106Z,950.65
2022-11-28T06:27:44.083Z,950.68
2022-11-28T06:28:44.070Z,950.67
2022-11-28T06:29:44.433Z,950.63
2022-11-28T06:30:44.032Z,950.62
2022-11-28T06:31:44.043Z,950.63
2022-11-28T06:32:43.995Z,950.62
2022-11-28T06:33:43.981Z,950.57
2022-11-28T06:34:43.964Z,950.54
2022-11-28T06:35:43.942Z,950.53
2022-11-28T06:36:43.932Z,950.54
2022-11-28T06:37:43.909Z,950.45
2022-11-28T06:38:43.892Z,950.47
2022-11-28T06:39:44.144Z,950.53
2022-11-28T06:40:43.853Z,950.48
2022-11-28T06:41:43.838Z,950.46
2022-11-28T06:42:43.820Z,950.46
2022-11-28T06:43:43.799Z,950.46
2022-11-28T06:44:43.783Z,950.42
2022-11-28T06:45:43.917Z,950.46
2022-11-28T06:46:43.749Z,950.43
2022-11-28T06:47:43.768Z,950.46
2022-11-28T06:48:43.714Z,950.46
2022-11-28T06:49:43.845Z,950.47
2022-11-28T06:50:43.688Z,950.51
2022-11-28T06:51:43.659Z,950.48
2022-11-28T06:52:43.642Z,950.55
2022-11-28T06:53:43.622Z,950.5
2022-11-28T06:54:43.604Z,950.56
2022-11-28T06:55:43.593Z,950.58
2022-11-28T06:56:43.569Z,950.56
2022-11-28T06:57:43.551Z,950.57
2022-11-28T06:58:43.534Z,950.63
2022-11-28T06:59:43.638Z,950.63
2022-11-28T07:00:43.537Z,950.65
2022-11-28T07:01:43.674Z,950.61
2022-11-28T07:02:43.532Z,950.64
2022-11-28T07:03:43.443Z,950.65
2022-11-28T07:04:43.426Z,950.71
2022-11-28T07:05:43.410Z,950.65
2022-11-28T07:06:43.393Z,950.72
2022-11-28T07:07:53.518Z,950.71
2022-11-28T07:08:43.356Z,950.79
2022-11-28T07:09:43.549Z,950.81
2022-11-28T07:10:43.323Z,950.75
2022-11-28T07:11:43.303Z,950.82
2022-11-28T07:12:43.288Z,950.79
2022-11-28T07:13:43.267Z,950.88
2022-11-28T07:14:43.249Z,950.88
2022-11-28T07:15:43.233Z,950.81
2022-11-28T07:16:43.271Z,950.87
2022-11-28T07:17:43.224Z,950.84
2022-11-28T07:18:43.179Z,950.82
2022-11-28T07:19:43.460Z,950.81
2022-11-28T07:20:43.146Z,950.66
2022-11-28T07:21:43.129Z,950.71
2022-11-28T07:22:43.113Z,950.65
2022-11-28T07:23:43.094Z,950.61
2022-11-28T07:24:43.078Z,950.59
2022-11-28T07:25:43.058Z,950.55
2022-11-28T07:26:43.040Z,950.6
2022-11-28T07:27:43.023Z,950.48
2022-11-28T07:28:43.015Z,950.51
2022-11-28T07:29:43.167Z,950.54
2022-11-28T07:30:42.970Z,950.54
2022-11-28T07:31:42.998Z,950.54
2022-11-28T07:32:42.936Z,950.51
2022-11-28T07:33:43.037Z,950.52
2022-11-28T07:34:45.541Z,950.51
2022-11-28T07:35:42.884Z,950.48
2022-11-28T07:36:42.865Z,950.43
2022-11-28T07:37:42.853Z,950.45
2022-11-28T07:38:42.831Z,950.45
2022-11-28T07:39:43.056Z,950.45
2022-11-28T07:40:42.796Z,950.48
2022-11-28T07:41:42.779Z,950.49
2022-11-28T07:42:42.768Z,950.51
2022-11-28T07:43:42.749Z,950.45
2022-11-28T07:44:42.728Z,950.49
2022-11-28T07:45:59.809Z,950.5
2022-11-28T07:46:42.763Z,950.48
2022-11-28T07:47:42.676Z,950.46
2022-11-28T07:48:42.659Z,950.49
2022-11-28T07:49:42.805Z,950.4
2022-11-28T07:50:42.624Z,950.4
2022-11-28T07:51:42.607Z,950.44
2022-11-28T07:52:42.589Z,950.48
2022-11-28T07:53:42.573Z,950.46
2022-11-28T07:54:42.553Z,950.47
2022-11-28T07:55:42.537Z,950.54
2022-11-28T07:57:11.170Z,950.54
2022-11-28T07:57:42.532Z,950.61
2022-11-28T07:58:42.498Z,950.59
2022-11-28T07:59:42.837Z,950.62
2022-11-28T08:00:42.480Z,950.7
2022-11-28T08:01:42.477Z,950.68
2022-11-28T08:02:42.564Z,950.72
2022-11-28T08:03:42.406Z,950.75
2022-11-28T08:04:47.724Z,950.72
2022-11-28T08:05:42.388Z,950.79
2022-11-28T08:06:42.345Z,950.86
2022-11-28T08:07:42.349Z,950.83
2022-11-28T08:08:42.310Z,950.86
2022-11-28T08:09:42.565Z,950.88
2022-11-28T08:10:42.276Z,950.89
2022-11-28T08:11:42.257Z,950.94
2022-11-28T08:12:42.243Z,950.9
2022-11-28T08:13:42.227Z,950.86
2022-11-28T08:14:42.558Z,950.86
2022-11-28T08:15:42.186Z,950.86
2022-11-28T08:16:42.268Z,950.83
2022-11-28T08:17:42.151Z,950.84
2022-11-28T08:18:42.138Z,950.82
2022-11-28T08:19:42.117Z,950.85
2022-11-28T08:20:42.124Z,950.84
2022-11-28T08:21:42.104Z,950.88
2022-11-28T08:22:42.068Z,950.88
2022-11-28T08:23:42.047Z,950.86
2022-11-28T08:24:42.438Z,950.84
2022-11-28T08:25:42.013Z,950.83
2022-11-28T08:26:41.997Z,950.81
2022-11-28T08:27:41.980Z,950.78
2022-11-28T08:28:41.961Z,950.71
2022-11-28T08:29:42.231Z,950.7
2022-11-28T08:30:42.000Z,950.63
2022-11-28T08:31:41.909Z,950.59
2022-11-28T08:32:41.892Z,950.58
2022-11-28T08:33:41.876Z,950.48
2022-11-28T08:34:41.859Z,950.46
2022-11-28T08:35:41.839Z,950.47
2022-11-28T08:36:41.823Z,950.44
2022-11-28T08:37:41.830Z,950.41
2022-11-28T08:38:43.194Z,950.41
2022-11-28T08:39:42.063Z,950.36
2022-11-28T08:40:41.758Z,950.3
2022-11-28T08:41:41.740Z,950.36
2022-11-28T08:42:41.723Z,950.34
2022-11-28T08:43:41.703Z,950.37
2022-11-28T08:44:41.687Z,950.4
2022-11-28T08:45:41.703Z,950.26
2022-11-28T08:46:41.654Z,950.32
2022-11-28T08:47:41.634Z,950.32
2022-11-28T08:48:41.620Z,950.28
2022-11-28T08:49:41.897Z,950.3
2022-11-28T08:50:46.645Z,950.3
2022-11-28T08:51:41.567Z,950.3
2022-11-28T08:52:41.550Z,950.23
2022-11-28T08:53:43.172Z,950.24
2022-11-28T08:54:41.878Z,950.2
2022-11-28T08:55:41.931Z,950.08
2022-11-28T08:56:41.479Z,950.21
2022-11-28T08:57:41.468Z,950.2
2022-11-28T08:58:41.447Z,950.11
2022-11-28T08:59:41.692Z,950.08
2022-11-28T09:00:41.412Z,950.17
2022-11-28T09:01:41.445Z,950.08
2022-11-28T09:02:41.382Z,950.12
2022-11-28T09:03:41.396Z,950.08
2022-11-28T09:04:41.344Z,950.06
2022-11-28T09:05:41.330Z,950.11
2022-11-28T09:06:41.311Z,950.04
2022-11-28T09:07:41.358Z,950.07
2022-11-28T09:08:41.275Z,950.13
2022-11-28T09:09:41.284Z,950.17
2022-11-28T09:10:41.241Z,950.13
2022-11-28T09:11:41.226Z,950.21
2022-11-28T09:12:41.207Z,950.23
2022-11-28T09:13:41.192Z,950.19
2022-11-28T09:14:41.173Z,950.21
2022-11-28T09:15:41.176Z,950.2
2022-11-28T09:16:41.248Z,950.21
2022-11-28T09:17:41.135Z,950.23
2022-11-28T09:18:41.104Z,950.29
2022-11-28T09:19:41.242Z,950.28
2022-11-28T09:20:41.070Z,950.3
2022-11-28T09:21:41.055Z,950.27
2022-11-28T09:22:41.042Z,950.29
2022-11-28T09:23:41.119Z,950.29
2022-11-28T09:24:41.004Z,950.3
2022-11-28T09:25:41.011Z,950.3
2022-11-28T09:26:40.969Z,950.35
2022-11-28T09:27:40.952Z,950.41
2022-11-28T09:28:40.934Z,950.54
2022-11-28T09:29:41.198Z,950.52
2022-11-28T09:30:40.924Z,950.67
2022-11-28T09:31:44.439Z,950.67
2022-11-28T09:32:40.867Z,950.62
2022-11-28T09:33:40.852Z,950.69
2022-11-28T09:34:40.836Z,950.64
2022-11-28T09:35:40.820Z,950.56
2022-11-28T09:36:40.799Z,950.49
2022-11-28T09:37:40.784Z,950.39
2022-11-28T09:38:40.765Z,950.5
2022-11-28T09:39:57.241Z,950.38
2022-11-28T09:40:40.729Z,950.28
2022-11-28T09:41:40.744Z,950.27
2022-11-28T09:42:40.697Z,950.16
2022-11-28T09:43:40.682Z,950.17
2022-11-28T09:44:40.662Z,950.13
2022-11-28T09:45:40.657Z,950.07
2022-11-28T09:46:40.662Z,950.03
2022-11-28T09:47:40.613Z,950.05
2022-11-28T09:48:40.698Z,950.08
2022-11-28T09:49:41.461Z,950.11
2022-11-28T09:50:40.564Z,950.13
2022-11-28T09:51:40.546Z,950.2
2022-11-28T09:52:40.643Z,950.16
2022-11-28T09:53:40.514Z,950.2
2022-11-28T09:54:40.495Z,950.11
2022-11-28T09:55:40.476Z,950.13
2022-11-28T09:56:40.460Z,950.04
2022-11-28T09:57:40.467Z,949.99
2022-11-28T09:58:40.433Z,950
2022-11-28T09:59:40.928Z,950.09
2022-11-28T10:00:40.397Z,950.29
2022-11-28T10:01:40.377Z,950.46
2022-11-28T10:02:40.359Z,950.54
2022-11-28T10:03:40.370Z,950.6
2022-11-28T10:04:40.396Z,950.53
2022-11-28T10:05:40.307Z,950.57
2022-11-28T10:06:40.292Z,950.65
2022-11-28T10:07:40.308Z,950.78
2022-11-28T10:08:40.261Z,950.75
2022-11-28T10:09:40.573Z,950.8
2022-11-28T10:10:40.223Z,950.84
2022-11-28T10:11:40.206Z,950.85
2022-11-28T10:12:40.191Z,950.79
2022-11-28T10:14:00.224Z,950.76
2022-11-28T10:14:40.156Z,950.74
2022-11-28T10:15:40.137Z,950.87
2022-11-28T10:16:40.153Z,950.94
2022-11-28T10:17:40.104Z,950.94
2022-11-28T10:18:40.089Z,950.89
2022-11-28T10:19:54.122Z,950.86
2022-11-28T10:20:40.055Z,950.85
2022-11-28T10:21:40.036Z,950.79
2022-11-28T10:22:40.031Z,950.76
2022-11-28T10:23:40.007Z,950.81
2022-11-28T10:24:39.987Z,950.81
2022-11-28T10:25:39.968Z,950.8
2022-11-28T10:26:39.954Z,950.77
2022-11-28T10:27:39.936Z,950.81
2022-11-28T10:28:39.922Z,950.78
2022-11-28T10:29:39.996Z,950.81
2022-11-28T10:30:39.918Z,950.81
2022-11-28T10:31:39.876Z,950.75
2022-11-28T10:32:39.856Z,950.76
2022-11-28T10:33:39.836Z,950.78
2022-11-28T10:34:39.824Z,950.73
2022-11-28T10:35:39.802Z,950.8
2022-11-28T10:36:39.792Z,950.78
2022-11-28T10:37:39.770Z,950.76
2022-11-28T10:38:39.756Z,950.73
2022-11-28T10:39:39.749Z,950.65
2022-11-28T10:40:39.719Z,950.56
2022-11-28T10:41:39.705Z,950.45
2022-11-28T10:42:39.686Z,950.39
2022-11-28T10:43:39.673Z,950.25
2022-11-28T10:44:39.653Z,950.19
2022-11-28T10:45:39.737Z,950.2
2022-11-28T10:46:39.687Z,950.14
2022-11-28T10:47:39.604Z,950.13
2022-11-28T10:48:40.799Z,950.09
2022-11-28T10:49:39.785Z,949.96
2022-11-28T10:50:39.555Z,949.96
2022-11-28T10:51:39.539Z,949.93
2022-11-28T10:52:39.523Z,949.93
2022-11-28T10:53:39.505Z,949.96
2022-11-28T10:54:39.487Z,949.91
2022-11-28T10:55:39.471Z,949.83
2022-11-28T10:56:39.454Z,949.84
2022-11-28T10:57:39.437Z,949.81
2022-11-28T10:58:39.420Z,949.78
2022-11-28T10:59:39.422Z,949.8
2022-11-28T11:00:39.387Z,949.73
2022-11-28T11:01:39.463Z,949.76
2022-11-28T11:02:39.354Z,949.72
2022-11-28T11:03:39.344Z,949.74
2022-11-28T11:04:39.419Z,949.72
2022-11-28T11:05:39.305Z,949.69
2022-11-28T11:06:41.967Z,949.7
2022-11-28T11:07:39.341Z,949.74
2022-11-28T11:08:39.253Z,949.76
2022-11-28T11:09:39.241Z,949.81
2022-11-28T11:10:39.221Z,949.84
2022-11-28T11:11:39.207Z,949.92
2022-11-28T11:12:39.187Z,949.93
2022-11-28T11:13:39.173Z,949.97
2022-11-28T11:14:39.158Z,950.01
2022-11-28T11:15:39.187Z,950.22
2022-11-28T11:16:39.168Z,950.16
2022-11-28T11:17:39.139Z,950.17
2022-11-28T11:18:39.089Z,950.22
2022-11-28T11:19:39.072Z,950.2
2022-11-28T11:20:39.054Z,950.13
2022-11-28T11:21:39.041Z,950.09
2022-11-28T11:22:39.026Z,950.07
2022-11-28T11:23:39.006Z,950.06
2022-11-28T11:24:38.987Z,949.96
2022-11-28T11:25:38.974Z,950.06
2022-11-28T11:26:38.955Z,950.04
2022-11-28T11:27:38.941Z,949.96
2022-11-28T11:28:38.930Z,950.01
2022-11-28T11:29:38.904Z,949.99
2022-11-28T11:30:39.048Z,950
2022-11-28T11:31:38.870Z,950
2022-11-28T11:32:38.854Z,950.07
2022-11-28T11:33:38.865Z,950.02
2022-11-28T11:34:38.820Z,949.98
2022-11-28T11:35:38.803Z,950.02
2022-11-28T11:36:38.788Z,950.11
2022-11-28T11:37:38.769Z,950.09
2022-11-28T11:38:38.751Z,950.16
2022-11-28T11:39:38.741Z,950.2
2022-11-28T11:40:38.720Z,950.28
2022-11-28T11:41:38.699Z,950.33
2022-11-28T11:42:38.683Z,950.31
2022-11-28T11:43:38.666Z,950.34
2022-11-28T11:44:38.660Z,950.32
2022-11-28T11:45:38.630Z,950.33
2022-11-28T11:46:38.676Z,950.29
2022-11-28T11:47:38.597Z,950.3
2022-11-28T11:48:38.584Z,950.36
2022-11-28T11:49:38.603Z,950.34
2022-11-28T11:50:38.548Z,950.43
2022-11-28T11:51:39.573Z,950.35
2022-11-28T11:52:38.514Z,950.35
2022-11-28T11:53:38.497Z,950.33
2022-11-28T11:54:38.481Z,950.36
2022-11-28T11:55:38.462Z,950.34
2022-11-28T11:56:38.463Z,950.34
2022-11-28T11:57:38.427Z,950.3
2022-11-28T11:58:38.411Z,950.35
2022-11-28T11:59:38.395Z,950.34
2022-11-28T12:00:38.376Z,950.34
2022-11-28T12:01:38.359Z,950.36
2022-11-28T12:02:38.480Z,950.34
2022-11-28T12:03:38.468Z,950.34
2022-11-28T12:04:45.605Z,950.35
2022-11-28T12:05:59.234Z,950.36
2022-11-28T12:06:38.277Z,950.33
2022-11-28T12:07:38.333Z,950.36
2022-11-28T12:08:38.245Z,950.32
2022-11-28T12:09:38.226Z,950.31
2022-11-28T12:10:38.209Z,950.32
2022-11-28T12:11:41.260Z,950.27
2022-11-28T12:12:38.177Z,950.26
2022-11-28T12:13:38.157Z,950.24
2022-11-28T12:14:38.140Z,950.25
2022-11-28T12:15:38.182Z,950.19
2022-11-28T12:16:38.172Z,950.23
2022-11-28T12:17:48.556Z,950.24
2022-11-28T12:29:26.328Z,950.33
2022-11-28T12:30:26.273Z,950.32
2022-11-28T12:31:26.292Z,950.24
2022-11-28T12:32:26.236Z,950.33
2022-11-28T12:33:26.219Z,950.26
2022-11-28T12:34:26.204Z,950.3
2022-11-28T12:35:26.187Z,950.31
2022-11-28T12:36:26.168Z,950.37
2022-11-28T12:37:29.521Z,950.43
2022-11-28T12:38:26.137Z,950.37
2022-11-28T12:39:26.118Z,950.36
2022-11-28T12:40:26.104Z,950.35
2022-11-28T12:41:30.818Z,950.37
2022-11-28T12:42:26.069Z,950.38
2022-11-28T12:43:26.050Z,950.38
2022-11-28T12:44:26.036Z,950.39
2022-11-28T12:45:26.039Z,950.4
2022-11-28T12:46:26.094Z,950.36
2022-11-28T12:47:25.982Z,950.36
2022-11-28T12:48:25.970Z,950.37
2022-11-28T12:49:25.954Z,950.4
2022-11-28T12:50:25.935Z,950.36
2022-11-28T12:51:25.925Z,950.42
2022-11-28T12:52:25.903Z,950.36
2022-11-28T12:53:25.887Z,950.46
2022-11-28T12:54:25.870Z,950.39
2022-11-28T12:55:25.853Z,950.38
2022-11-28T12:56:25.836Z,950.32
2022-11-28T12:57:26.440Z,950.35
2022-11-28T12:58:26.423Z,950.32